DTTF/GAF METAR and TAF weather

Enter ICAO airport designator
Station Type Date Time Source
DTTF METAR 2018/04/21 11:00 UTC NOAA

DTTF 211100Z VRB04KT 8000 FEW026 24/07 Q1018 NOSIG


Station Type Date Time Source
DTTF Decoded METAR 2018/04/21 11:00 UTC NOAA

Gafsa, Tunisia (DTTF) 34-25N 008-49E 314M
Apr 21, 2018 - 07:00 AM EDT / 2018.04.21 1100 UTC
Wind: Variable at 5 MPH (4 KT):0
Visibility: 4 mile(s):0
Sky conditions: mostly clear
Temperature: 75 F (24 C)
Dew Point: 44 F (7 C)
Relative Humidity: 33%
Pressure (altimeter): 30.06 in. Hg (1018 hPa)
ob: DTTF 211100Z VRB04KT 8000 FEW026 24/07 Q1018 NOSIG
cycle: 11

Station Type Date Time Source
DTTF TAF 2017/08/22 04:45 UTC NOAA

TAF TAF DTTF 220640Z 2204/2216 05014KT CAVOK


Example: see airport list